sensor_id;sensor_type;location;lat;lon;timestamp;P1;durP1;ratioP1;P2;durP2;ratioP2
3567;SDS011;1798;48.486;9.232;2024-01-11T00:02:25;91.00;;;41.40;;
3567;SDS011;1798;48.486;9.232;2024-01-11T00:04:51;110.00;;;44.93;;
3567;SDS011;1798;48.486;9.232;2024-01-11T00:07:18;96.43;;;41.47;;
3567;SDS011;1798;48.486;9.232;2024-01-11T00:09:46;87.57;;;36.90;;
3567;SDS011;1798;48.486;9.232;2024-01-11T00:12:13;94.73;;;42.00;;
3567;SDS011;1798;48.486;9.232;2024-01-11T00:14:39;92.50;;;42.23;;
3567;SDS011;1798;48.486;9.232;2024-01-11T00:17:07;89.40;;;38.43;;
3567;SDS011;1798;48.486;9.232;2024-01-11T00:19:34;110.27;;;45.13;;
3567;SDS011;1798;48.486;9.232;2024-01-11T00:22:00;101.10;;;42.53;;
3567;SDS011;1798;48.486;9.232;2024-01-11T00:24:27;93.50;;;42.10;;
3567;SDS011;1798;48.486;9.232;2024-01-11T00:26:55;103.83;;;43.23;;
3567;SDS011;1798;48.486;9.232;2024-01-11T00:29:22;109.07;;;41.47;;
3567;SDS011;1798;48.486;9.232;2024-01-11T00:31:48;83.33;;;41.07;;
3567;SDS011;1798;48.486;9.232;2024-01-11T00:34:15;105.77;;;41.83;;
3567;SDS011;1798;48.486;9.232;2024-01-11T00:36:42;94.97;;;39.23;;
3567;SDS011;1798;48.486;9.232;2024-01-11T00:39:08;98.97;;;39.40;;
3567;SDS011;1798;48.486;9.232;2024-01-11T00:41:36;95.17;;;42.50;;
3567;SDS011;1798;48.486;9.232;2024-01-11T00:44:05;82.63;;;36.97;;
3567;SDS011;1798;48.486;9.232;2024-01-11T00:46:32;88.87;;;37.97;;
3567;SDS011;1798;48.486;9.232;2024-01-11T00:48:59;78.47;;;38.37;;
3567;SDS011;1798;48.486;9.232;2024-01-11T00:51:25;106.40;;;37.47;;
3567;SDS011;1798;48.486;9.232;2024-01-11T00:53:52;107.10;;;39.27;;
3567;SDS011;1798;48.486;9.232;2024-01-11T00:56:18;87.47;;;38.33;;
3567;SDS011;1798;48.486;9.232;2024-01-11T00:58:45;99.70;;;39.03;;
3567;SDS011;1798;48.486;9.232;2024-01-11T01:01:13;79.57;;;36.13;;
3567;SDS011;1798;48.486;9.232;2024-01-11T01:03:40;81.33;;;36.30;;
3567;SDS011;1798;48.486;9.232;2024-01-11T01:06:07;84.63;;;35.67;;
3567;SDS011;1798;48.486;9.232;2024-01-11T01:08:33;102.43;;;36.80;;
3567;SDS011;1798;48.486;9.232;2024-01-11T01:11:00;98.17;;;35.83;;
3567;SDS011;1798;48.486;9.232;2024-01-11T01:13:26;88.30;;;34.97;;
3567;SDS011;1798;48.486;9.232;2024-01-11T01:15:53;98.03;;;36.93;;
3567;SDS011;1798;48.486;9.232;2024-01-11T01:18:21;87.03;;;37.90;;
3567;SDS011;1798;48.486;9.232;2024-01-11T01:20:47;93.27;;;40.20;;
3567;SDS011;1798;48.486;9.232;2024-01-11T01:23:14;75.40;;;33.37;;
3567;SDS011;1798;48.486;9.232;2024-01-11T01:25:41;84.83;;;36.53;;
3567;SDS011;1798;48.486;9.232;2024-01-11T01:28:08;143.03;;;35.27;;
3567;SDS011;1798;48.486;9.232;2024-01-11T01:30:35;72.70;;;32.73;;
3567;SDS011;1798;48.486;9.232;2024-01-11T01:33:02;77.07;;;33.77;;
3567;SDS011;1798;48.486;9.232;2024-01-11T01:35:30;81.60;;;32.37;;
3567;SDS011;1798;48.486;9.232;2024-01-11T01:37:57;77.33;;;32.23;;
3567;SDS011;1798;48.486;9.232;2024-01-11T01:40:23;84.30;;;34.23;;
3567;SDS011;1798;48.486;9.232;2024-01-11T01:42:50;79.17;;;32.50;;
3567;SDS011;1798;48.486;9.232;2024-01-11T01:45:17;83.30;;;36.60;;
3567;SDS011;1798;48.486;9.232;2024-01-11T01:47:43;109.30;;;37.30;;
3567;SDS011;1798;48.486;9.232;2024-01-11T01:50:10;72.30;;;31.47;;
3567;SDS011;1798;48.486;9.232;2024-01-11T01:52:39;90.43;;;35.30;;
3567;SDS011;1798;48.486;9.232;2024-01-11T01:55:06;96.07;;;35.77;;
3567;SDS011;1798;48.486;9.232;2024-01-11T01:57:34;77.47;;;31.83;;
3567;SDS011;1798;48.486;9.232;2024-01-11T02:00:01;82.00;;;34.40;;
3567;SDS011;1798;48.486;9.232;2024-01-11T02:02:29;85.63;;;35.87;;
3567;SDS011;1798;48.486;9.232;2024-01-11T02:04:57;71.20;;;33.43;;
3567;SDS011;1798;48.486;9.232;2024-01-11T02:07:24;79.03;;;33.07;;
3567;SDS011;1798;48.486;9.232;2024-01-11T02:09:52;68.70;;;32.00;;
3567;SDS011;1798;48.486;9.232;2024-01-11T02:12:19;71.20;;;32.87;;
3567;SDS011;1798;48.486;9.232;2024-01-11T02:14:46;77.60;;;35.27;;
3567;SDS011;1798;48.486;9.232;2024-01-11T02:17:13;68.13;;;32.17;;
3567;SDS011;1798;48.486;9.232;2024-01-11T02:19:40;96.43;;;35.20;;
3567;SDS011;1798;48.486;9.232;2024-01-11T02:22:08;94.53;;;38.40;;
3567;SDS011;1798;48.486;9.232;2024-01-11T02:24:39;93.50;;;32.77;;
3567;SDS011;1798;48.486;9.232;2024-01-11T02:27:06;77.50;;;32.40;;
3567;SDS011;1798;48.486;9.232;2024-01-11T02:29:35;104.00;;;34.47;;
3567;SDS011;1798;48.486;9.232;2024-01-11T02:32:02;103.93;;;30.33;;
3567;SDS011;1798;48.486;9.232;2024-01-11T02:34:29;66.10;;;30.83;;
3567;SDS011;1798;48.486;9.232;2024-01-11T02:36:56;95.77;;;31.90;;
3567;SDS011;1798;48.486;9.232;2024-01-11T02:39:23;71.40;;;31.77;;
3567;SDS011;1798;48.486;9.232;2024-01-11T02:41:53;85.23;;;32.70;;
3567;SDS011;1798;48.486;9.232;2024-01-11T02:44:22;89.20;;;35.23;;
3567;SDS011;1798;48.486;9.232;2024-01-11T02:46:48;70.47;;;32.87;;
3567;SDS011;1798;48.486;9.232;2024-01-11T02:49:15;62.50;;;32.57;;
3567;SDS011;1798;48.486;9.232;2024-01-11T02:51:41;77.13;;;35.00;;
3567;SDS011;1798;48.486;9.232;2024-01-11T02:54:08;79.80;;;32.47;;
3567;SDS011;1798;48.486;9.232;2024-01-11T02:56:35;85.43;;;32.60;;
3567;SDS011;1798;48.486;9.232;2024-01-11T02:59:03;81.03;;;33.53;;
3567;SDS011;1798;48.486;9.232;2024-01-11T03:01:29;81.30;;;33.03;;
3567;SDS011;1798;48.486;9.232;2024-01-11T03:03:57;103.23;;;35.97;;
3567;SDS011;1798;48.486;9.232;2024-01-11T03:06:24;94.93;;;34.80;;
3567;SDS011;1798;48.486;9.232;2024-01-11T03:08:50;79.83;;;34.13;;
3567;SDS011;1798;48.486;9.232;2024-01-11T03:11:17;67.33;;;32.90;;
3567;SDS011;1798;48.486;9.232;2024-01-11T03:13:43;80.37;;;30.40;;
3567;SDS011;1798;48.486;9.232;2024-01-11T03:16:11;78.23;;;32.60;;
3567;SDS011;1798;48.486;9.232;2024-01-11T03:18:38;82.70;;;31.97;;
3567;SDS011;1798;48.486;9.232;2024-01-11T03:21:05;65.73;;;30.90;;
3567;SDS011;1798;48.486;9.232;2024-01-11T03:23:32;69.30;;;31.30;;
3567;SDS011;1798;48.486;9.232;2024-01-11T03:25:58;73.40;;;30.83;;
3567;SDS011;1798;48.486;9.232;2024-01-11T03:28:26;74.17;;;31.80;;
3567;SDS011;1798;48.486;9.232;2024-01-11T03:30:52;61.73;;;30.43;;
3567;SDS011;1798;48.486;9.232;2024-01-11T03:33:20;61.07;;;31.10;;
3567;SDS011;1798;48.486;9.232;2024-01-11T03:35:47;87.73;;;29.97;;
3567;SDS011;1798;48.486;9.232;2024-01-11T03:38:14;67.10;;;29.70;;
3567;SDS011;1798;48.486;9.232;2024-01-11T03:40:40;82.43;;;31.57;;
3567;SDS011;1798;48.486;9.232;2024-01-11T03:43:07;80.23;;;33.43;;
3567;SDS011;1798;48.486;9.232;2024-01-11T03:45:34;75.87;;;32.50;;
3567;SDS011;1798;48.486;9.232;2024-01-11T03:48:00;81.20;;;33.23;;
3567;SDS011;1798;48.486;9.232;2024-01-11T03:50:28;69.23;;;33.70;;
3567;SDS011;1798;48.486;9.232;2024-01-11T03:52:55;89.97;;;30.27;;
3567;SDS011;1798;48.486;9.232;2024-01-11T03:55:22;73.13;;;30.37;;
3567;SDS011;1798;48.486;9.232;2024-01-11T03:57:49;93.47;;;32.20;;
3567;SDS011;1798;48.486;9.232;2024-01-11T04:00:17;73.37;;;30.70;;
3567;SDS011;1798;48.486;9.232;2024-01-11T04:02:44;80.20;;;32.93;;
3567;SDS011;1798;48.486;9.232;2024-01-11T04:05:11;82.37;;;30.70;;
3567;SDS011;1798;48.486;9.232;2024-01-11T04:07:39;94.27;;;35.37;;
3567;SDS011;1798;48.486;9.232;2024-01-11T04:10:06;85.07;;;35.43;;
3567;SDS011;1798;48.486;9.232;2024-01-11T04:12:34;81.73;;;31.03;;
3567;SDS011;1798;48.486;9.232;2024-01-11T04:15:01;115.63;;;36.07;;
3567;SDS011;1798;48.486;9.232;2024-01-11T04:17:28;64.37;;;30.90;;
3567;SDS011;1798;48.486;9.232;2024-01-11T04:19:54;86.10;;;34.83;;
3567;SDS011;1798;48.486;9.232;2024-01-11T04:22:21;78.60;;;31.83;;
3567;SDS011;1798;48.486;9.232;2024-01-11T04:24:49;73.10;;;31.83;;
3567;SDS011;1798;48.486;9.232;2024-01-11T04:27:15;74.00;;;30.43;;
3567;SDS011;1798;48.486;9.232;2024-01-11T04:29:42;90.50;;;32.53;;
3567;SDS011;1798;48.486;9.232;2024-01-11T04:32:08;82.87;;;32.23;;
3567;SDS011;1798;48.486;9.232;2024-01-11T04:34:35;74.03;;;32.43;;
3567;SDS011;1798;48.486;9.232;2024-01-11T04:37:02;85.27;;;33.83;;
3567;SDS011;1798;48.486;9.232;2024-01-11T04:39:29;78.80;;;37.30;;
3567;SDS011;1798;48.486;9.232;2024-01-11T04:41:57;90.77;;;35.30;;
3567;SDS011;1798;48.486;9.232;2024-01-11T04:44:23;78.90;;;33.67;;
3567;SDS011;1798;48.486;9.232;2024-01-11T04:46:50;82.67;;;34.50;;
3567;SDS011;1798;48.486;9.232;2024-01-11T04:49:16;69.93;;;32.43;;
3567;SDS011;1798;48.486;9.232;2024-01-11T04:51:43;76.80;;;32.87;;
3567;SDS011;1798;48.486;9.232;2024-01-11T04:54:09;75.23;;;30.83;;
3567;SDS011;1798;48.486;9.232;2024-01-11T04:56:35;72.27;;;31.40;;
3567;SDS011;1798;48.486;9.232;2024-01-11T04:59:03;75.43;;;30.37;;
3567;SDS011;1798;48.486;9.232;2024-01-11T05:01:30;97.27;;;36.77;;
3567;SDS011;1798;48.486;9.232;2024-01-11T05:03:56;76.53;;;31.50;;
3567;SDS011;1798;48.486;9.232;2024-01-11T05:06:23;63.83;;;28.40;;
3567;SDS011;1798;48.486;9.232;2024-01-11T05:08:50;84.77;;;31.70;;
3567;SDS011;1798;48.486;9.232;2024-01-11T05:11:18;65.03;;;29.50;;
3567;SDS011;1798;48.486;9.232;2024-01-11T05:13:45;73.43;;;31.77;;
3567;SDS011;1798;48.486;9.232;2024-01-11T05:16:19;73.77;;;30.27;;
3567;SDS011;1798;48.486;9.232;2024-01-11T05:18:46;73.53;;;33.47;;
3567;SDS011;1798;48.486;9.232;2024-01-11T05:21:12;87.87;;;34.90;;
3567;SDS011;1798;48.486;9.232;2024-01-11T05:23:41;80.07;;;30.53;;
3567;SDS011;1798;48.486;9.232;2024-01-11T05:26:08;86.20;;;31.40;;
3567;SDS011;1798;48.486;9.232;2024-01-11T05:28:34;72.13;;;33.80;;
3567;SDS011;1798;48.486;9.232;2024-01-11T05:31:03;61.60;;;29.30;;
3567;SDS011;1798;48.486;9.232;2024-01-11T05:33:32;66.10;;;30.37;;
3567;SDS011;1798;48.486;9.232;2024-01-11T05:35:59;74.77;;;30.77;;
3567;SDS011;1798;48.486;9.232;2024-01-11T05:38:26;66.20;;;29.93;;
3567;SDS011;1798;48.486;9.232;2024-01-11T05:40:52;62.73;;;28.17;;
3567;SDS011;1798;48.486;9.232;2024-01-11T05:43:19;74.47;;;30.93;;
3567;SDS011;1798;48.486;9.232;2024-01-11T05:45:45;62.83;;;29.60;;
3567;SDS011;1798;48.486;9.232;2024-01-11T05:48:12;68.30;;;29.07;;
3567;SDS011;1798;48.486;9.232;2024-01-11T05:50:40;70.93;;;32.63;;
3567;SDS011;1798;48.486;9.232;2024-01-11T05:53:07;63.57;;;30.90;;
3567;SDS011;1798;48.486;9.232;2024-01-11T05:55:34;84.43;;;34.50;;
3567;SDS011;1798;48.486;9.232;2024-01-11T05:58:00;86.40;;;33.07;;
3567;SDS011;1798;48.486;9.232;2024-01-11T06:00:27;82.30;;;31.27;;
3567;SDS011;1798;48.486;9.232;2024-01-11T06:02:53;73.77;;;31.47;;
3567;SDS011;1798;48.486;9.232;2024-01-11T06:05:20;93.60;;;30.47;;
3567;SDS011;1798;48.486;9.232;2024-01-11T06:07:48;71.83;;;33.60;;
3567;SDS011;1798;48.486;9.232;2024-01-11T06:10:15;92.63;;;33.37;;
3567;SDS011;1798;48.486;9.232;2024-01-11T06:12:42;61.17;;;28.73;;
3567;SDS011;1798;48.486;9.232;2024-01-11T06:15:08;73.67;;;32.87;;
3567;SDS011;1798;48.486;9.232;2024-01-11T06:17:35;82.60;;;30.60;;
3567;SDS011;1798;48.486;9.232;2024-01-11T06:20:02;68.33;;;31.30;;
3567;SDS011;1798;48.486;9.232;2024-01-11T06:22:30;76.10;;;32.27;;
3567;SDS011;1798;48.486;9.232;2024-01-11T06:24:58;61.33;;;28.87;;
3567;SDS011;1798;48.486;9.232;2024-01-11T06:27:25;67.93;;;31.87;;
3567;SDS011;1798;48.486;9.232;2024-01-11T06:29:51;82.97;;;31.70;;
3567;SDS011;1798;48.486;9.232;2024-01-11T06:32:18;65.23;;;28.83;;
3567;SDS011;1798;48.486;9.232;2024-01-11T06:34:45;81.33;;;34.93;;
3567;SDS011;1798;48.486;9.232;2024-01-11T06:37:12;76.07;;;33.90;;
3567;SDS011;1798;48.486;9.232;2024-01-11T06:39:39;86.67;;;32.73;;
3567;SDS011;1798;48.486;9.232;2024-01-11T06:42:07;78.73;;;34.77;;
3567;SDS011;1798;48.486;9.232;2024-01-11T06:44:33;66.77;;;29.43;;
3567;SDS011;1798;48.486;9.232;2024-01-11T06:47:00;71.60;;;31.70;;
3567;SDS011;1798;48.486;9.232;2024-01-11T06:49:29;77.43;;;31.90;;
3567;SDS011;1798;48.486;9.232;2024-01-11T06:51:55;73.83;;;31.90;;
3567;SDS011;1798;48.486;9.232;2024-01-11T06:54:22;72.90;;;30.37;;
3567;SDS011;1798;48.486;9.232;2024-01-11T06:56:49;60.33;;;28.23;;
3567;SDS011;1798;48.486;9.232;2024-01-11T06:59:17;81.80;;;28.43;;
3567;SDS011;1798;48.486;9.232;2024-01-11T07:01:43;67.37;;;32.13;;
3567;SDS011;1798;48.486;9.232;2024-01-11T07:04:10;82.60;;;31.87;;
3567;SDS011;1798;48.486;9.232;2024-01-11T07:06:37;76.23;;;32.57;;
3567;SDS011;1798;48.486;9.232;2024-01-11T07:09:03;60.47;;;29.33;;
3567;SDS011;1798;48.486;9.232;2024-01-11T07:11:33;83.00;;;30.53;;
3567;SDS011;1798;48.486;9.232;2024-01-11T07:13:59;80.00;;;30.40;;
3567;SDS011;1798;48.486;9.232;2024-01-11T07:16:27;63.67;;;31.47;;
3567;SDS011;1798;48.486;9.232;2024-01-11T07:18:54;65.60;;;27.47;;
3567;SDS011;1798;48.486;9.232;2024-01-11T07:21:21;69.90;;;31.73;;
3567;SDS011;1798;48.486;9.232;2024-01-11T07:23:54;70.03;;;31.83;;
3567;SDS011;1798;48.486;9.232;2024-01-11T07:26:21;84.77;;;34.03;;
3567;SDS011;1798;48.486;9.232;2024-01-11T07:28:48;79.90;;;33.20;;
3567;SDS011;1798;48.486;9.232;2024-01-11T07:31:15;64.40;;;30.40;;
3567;SDS011;1798;48.486;9.232;2024-01-11T07:33:43;77.20;;;28.90;;
3567;SDS011;1798;48.486;9.232;2024-01-11T07:36:10;62.77;;;28.50;;
3567;SDS011;1798;48.486;9.232;2024-01-11T07:38:37;78.53;;;31.53;;
3567;SDS011;1798;48.486;9.232;2024-01-11T07:41:04;94.47;;;32.57;;
3567;SDS011;1798;48.486;9.232;2024-01-11T07:43:34;73.53;;;30.73;;
3567;SDS011;1798;48.486;9.232;2024-01-11T07:46:00;89.40;;;31.47;;
3567;SDS011;1798;48.486;9.232;2024-01-11T07:48:28;74.80;;;30.50;;
3567;SDS011;1798;48.486;9.232;2024-01-11T07:50:57;68.73;;;27.60;;
3567;SDS011;1798;48.486;9.232;2024-01-11T07:53:24;74.70;;;31.00;;
3567;SDS011;1798;48.486;9.232;2024-01-11T07:55:50;68.70;;;29.97;;
3567;SDS011;1798;48.486;9.232;2024-01-11T07:58:17;69.73;;;30.77;;
3567;SDS011;1798;48.486;9.232;2024-01-11T08:00:45;68.00;;;28.77;;
3567;SDS011;1798;48.486;9.232;2024-01-11T08:03:13;59.23;;;29.47;;
3567;SDS011;1798;48.486;9.232;2024-01-11T08:05:39;78.43;;;34.53;;
3567;SDS011;1798;48.486;9.232;2024-01-11T08:08:08;85.07;;;33.17;;
3567;SDS011;1798;48.486;9.232;2024-01-11T08:10:34;88.17;;;35.27;;
3567;SDS011;1798;48.486;9.232;2024-01-11T08:13:01;69.27;;;31.63;;
3567;SDS011;1798;48.486;9.232;2024-01-11T08:15:28;72.47;;;32.07;;
3567;SDS011;1798;48.486;9.232;2024-01-11T08:17:55;81.13;;;33.90;;
3567;SDS011;1798;48.486;9.232;2024-01-11T08:20:22;85.37;;;33.70;;
3567;SDS011;1798;48.486;9.232;2024-01-11T08:22:49;100.60;;;35.50;;
3567;SDS011;1798;48.486;9.232;2024-01-11T08:25:17;104.83;;;36.07;;
3567;SDS011;1798;48.486;9.232;2024-01-11T08:27:43;92.57;;;33.87;;
3567;SDS011;1798;48.486;9.232;2024-01-11T08:30:10;91.13;;;35.37;;
3567;SDS011;1798;48.486;9.232;2024-01-11T08:32:37;77.73;;;34.00;;
3567;SDS011;1798;48.486;9.232;2024-01-11T08:35:07;98.10;;;34.97;;
3567;SDS011;1798;48.486;9.232;2024-01-11T08:37:37;98.67;;;35.23;;
3567;SDS011;1798;48.486;9.232;2024-01-11T08:40:04;119.67;;;40.67;;
3567;SDS011;1798;48.486;9.232;2024-01-11T08:42:33;104.87;;;40.40;;
3567;SDS011;1798;48.486;9.232;2024-01-11T08:45:00;101.23;;;37.07;;
3567;SDS011;1798;48.486;9.232;2024-01-11T08:47:32;62.83;;;28.40;;
3567;SDS011;1798;48.486;9.232;2024-01-11T08:49:58;111.33;;;40.97;;
3567;SDS011;1798;48.486;9.232;2024-01-11T08:52:25;116.03;;;38.67;;
3567;SDS011;1798;48.486;9.232;2024-01-11T08:54:52;101.27;;;41.87;;
3567;SDS011;1798;48.486;9.232;2024-01-11T08:57:18;102.20;;;42.57;;
3567;SDS011;1798;48.486;9.232;2024-01-11T08:59:46;113.40;;;43.20;;
3567;SDS011;1798;48.486;9.232;2024-01-11T09:02:16;61.83;;;27.37;;
3567;SDS011;1798;48.486;9.232;2024-01-11T09:04:42;106.53;;;40.77;;
3567;SDS011;1798;48.486;9.232;2024-01-11T09:07:09;93.70;;;39.53;;
3567;SDS011;1798;48.486;9.232;2024-01-11T09:09:35;98.63;;;43.17;;
3567;SDS011;1798;48.486;9.232;2024-01-11T09:12:02;108.90;;;42.70;;
3567;SDS011;1798;48.486;9.232;2024-01-11T09:14:29;104.27;;;41.33;;
3567;SDS011;1798;48.486;9.232;2024-01-11T09:16:57;117.87;;;41.07;;
3567;SDS011;1798;48.486;9.232;2024-01-11T09:19:24;99.30;;;41.40;;
3567;SDS011;1798;48.486;9.232;2024-01-11T09:21:51;102.70;;;41.83;;
3567;SDS011;1798;48.486;9.232;2024-01-11T09:24:18;89.17;;;39.60;;
3567;SDS011;1798;48.486;9.232;2024-01-11T09:26:45;104.63;;;41.77;;
3567;SDS011;1798;48.486;9.232;2024-01-11T09:29:12;118.13;;;43.67;;
3567;SDS011;1798;48.486;9.232;2024-01-11T09:31:39;112.03;;;44.17;;
3567;SDS011;1798;48.486;9.232;2024-01-11T09:34:08;112.10;;;45.90;;
3567;SDS011;1798;48.486;9.232;2024-01-11T09:36:36;115.13;;;43.90;;
3567;SDS011;1798;48.486;9.232;2024-01-11T09:39:04;98.37;;;41.43;;
3567;SDS011;1798;48.486;9.232;2024-01-11T09:41:30;116.13;;;41.70;;
3567;SDS011;1798;48.486;9.232;2024-01-11T09:43:58;121.97;;;42.87;;
3567;SDS011;1798;48.486;9.232;2024-01-11T09:46:26;95.93;;;41.37;;
3567;SDS011;1798;48.486;9.232;2024-01-11T09:48:54;119.70;;;46.33;;
3567;SDS011;1798;48.486;9.232;2024-01-11T09:51:23;169.67;;;43.70;;
3567;SDS011;1798;48.486;9.232;2024-01-11T09:53:50;108.17;;;44.93;;
3567;SDS011;1798;48.486;9.232;2024-01-11T09:56:17;105.93;;;45.77;;
3567;SDS011;1798;48.486;9.232;2024-01-11T09:58:44;107.57;;;47.50;;
3567;SDS011;1798;48.486;9.232;2024-01-11T10:01:13;146.63;;;48.97;;
3567;SDS011;1798;48.486;9.232;2024-01-11T10:03:40;115.80;;;48.60;;
3567;SDS011;1798;48.486;9.232;2024-01-11T10:06:07;121.87;;;45.10;;
3567;SDS011;1798;48.486;9.232;2024-01-11T10:08:37;123.60;;;45.70;;
3567;SDS011;1798;48.486;9.232;2024-01-11T10:11:03;129.10;;;46.77;;
3567;SDS011;1798;48.486;9.232;2024-01-11T10:13:30;128.43;;;47.57;;
3567;SDS011;1798;48.486;9.232;2024-01-11T10:16:05;75.77;;;34.63;;
3567;SDS011;1798;48.486;9.232;2024-01-11T10:18:33;94.93;;;39.30;;
3567;SDS011;1798;48.486;9.232;2024-01-11T10:21:00;100.90;;;42.20;;
3567;SDS011;1798;48.486;9.232;2024-01-11T10:23:29;101.20;;;37.13;;
3567;SDS011;1798;48.486;9.232;2024-01-11T10:25:57;130.30;;;47.57;;
3567;SDS011;1798;48.486;9.232;2024-01-11T10:28:24;76.87;;;35.07;;
3567;SDS011;1798;48.486;9.232;2024-01-11T10:30:50;99.77;;;37.33;;
3567;SDS011;1798;48.486;9.232;2024-01-11T10:33:18;88.50;;;39.13;;
3567;SDS011;1798;48.486;9.232;2024-01-11T10:35:46;97.37;;;38.23;;
3567;SDS011;1798;48.486;9.232;2024-01-11T10:38:15;82.37;;;34.40;;
3567;SDS011;1798;48.486;9.232;2024-01-11T10:40:42;108.43;;;42.47;;
3567;SDS011;1798;48.486;9.232;2024-01-11T10:43:10;131.77;;;44.23;;
3567;SDS011;1798;48.486;9.232;2024-01-11T10:45:38;140.07;;;53.43;;
3567;SDS011;1798;48.486;9.232;2024-01-11T10:48:06;117.83;;;48.47;;
3567;SDS011;1798;48.486;9.232;2024-01-11T10:50:34;118.80;;;45.50;;
3567;SDS011;1798;48.486;9.232;2024-01-11T10:53:03;115.07;;;40.63;;
3567;SDS011;1798;48.486;9.232;2024-01-11T10:55:31;108.43;;;40.83;;
3567;SDS011;1798;48.486;9.232;2024-01-11T10:57:59;130.57;;;51.33;;
3567;SDS011;1798;48.486;9.232;2024-01-11T11:00:28;108.37;;;46.57;;
3567;SDS011;1798;48.486;9.232;2024-01-11T11:02:55;126.90;;;47.20;;
3567;SDS011;1798;48.486;9.232;2024-01-11T11:05:25;117.70;;;46.33;;
3567;SDS011;1798;48.486;9.232;2024-01-11T11:07:51;120.17;;;48.70;;
3567;SDS011;1798;48.486;9.232;2024-01-11T11:10:19;124.77;;;47.40;;
3567;SDS011;1798;48.486;9.232;2024-01-11T11:12:48;117.23;;;45.90;;
3567;SDS011;1798;48.486;9.232;2024-01-11T11:15:15;123.20;;;46.67;;
3567;SDS011;1798;48.486;9.232;2024-01-11T11:17:43;116.40;;;47.27;;
3567;SDS011;1798;48.486;9.232;2024-01-11T11:20:12;132.40;;;48.33;;
3567;SDS011;1798;48.486;9.232;2024-01-11T11:22:39;117.07;;;46.57;;
3567;SDS011;1798;48.486;9.232;2024-01-11T11:25:08;121.53;;;44.53;;
3567;SDS011;1798;48.486;9.232;2024-01-11T11:27:35;104.53;;;45.67;;
3567;SDS011;1798;48.486;9.232;2024-01-11T11:30:02;115.33;;;51.17;;
3567;SDS011;1798;48.486;9.232;2024-01-11T11:32:37;104.80;;;47.63;;
3567;SDS011;1798;48.486;9.232;2024-01-11T11:35:06;139.17;;;50.20;;
3567;SDS011;1798;48.486;9.232;2024-01-11T11:37:33;143.30;;;51.17;;
3567;SDS011;1798;48.486;9.232;2024-01-11T11:40:00;106.30;;;44.30;;
3567;SDS011;1798;48.486;9.232;2024-01-11T11:42:30;104.10;;;44.73;;
3567;SDS011;1798;48.486;9.232;2024-01-11T11:44:56;154.03;;;54.33;;
3567;SDS011;1798;48.486;9.232;2024-01-11T11:47:24;156.37;;;52.77;;
3567;SDS011;1798;48.486;9.232;2024-01-11T11:49:57;131.87;;;51.60;;
3567;SDS011;1798;48.486;9.232;2024-01-11T11:52:27;121.30;;;51.70;;
3567;SDS011;1798;48.486;9.232;2024-01-11T11:54:54;115.37;;;50.03;;
3567;SDS011;1798;48.486;9.232;2024-01-11T11:57:22;128.90;;;45.63;;
3567;SDS011;1798;48.486;9.232;2024-01-11T11:59:49;162.43;;;53.43;;
3567;SDS011;1798;48.486;9.232;2024-01-11T12:02:16;136.83;;;54.87;;
3567;SDS011;1798;48.486;9.232;2024-01-11T12:04:46;127.50;;;50.00;;
3567;SDS011;1798;48.486;9.232;2024-01-11T12:07:13;119.40;;;47.20;;
3567;SDS011;1798;48.486;9.232;2024-01-11T12:09:41;119.67;;;48.63;;
3567;SDS011;1798;48.486;9.232;2024-01-11T12:12:08;145.53;;;52.57;;
3567;SDS011;1798;48.486;9.232;2024-01-11T12:14:35;133.07;;;52.33;;
3567;SDS011;1798;48.486;9.232;2024-01-11T12:17:02;129.07;;;50.63;;
3567;SDS011;1798;48.486;9.232;2024-01-11T12:19:30;155.63;;;47.70;;
3567;SDS011;1798;48.486;9.232;2024-01-11T12:21:56;132.10;;;48.17;;
3567;SDS011;1798;48.486;9.232;2024-01-11T12:24:23;129.23;;;48.97;;
3567;SDS011;1798;48.486;9.232;2024-01-11T12:26:51;98.93;;;42.17;;
3567;SDS011;1798;48.486;9.232;2024-01-11T12:29:19;114.13;;;46.90;;
3567;SDS011;1798;48.486;9.232;2024-01-11T12:31:46;122.30;;;51.73;;
3567;SDS011;1798;48.486;9.232;2024-01-11T12:34:16;150.83;;;52.47;;
3567;SDS011;1798;48.486;9.232;2024-01-11T12:36:45;144.70;;;52.27;;
3567;SDS011;1798;48.486;9.232;2024-01-11T12:39:12;104.07;;;46.43;;
3567;SDS011;1798;48.486;9.232;2024-01-11T12:41:40;138.17;;;50.03;;
3567;SDS011;1798;48.486;9.232;2024-01-11T12:44:11;126.43;;;47.10;;
3567;SDS011;1798;48.486;9.232;2024-01-11T12:46:39;136.87;;;53.47;;
3567;SDS011;1798;48.486;9.232;2024-01-11T12:49:08;137.93;;;50.17;;
3567;SDS011;1798;48.486;9.232;2024-01-11T12:51:36;160.40;;;51.03;;
3567;SDS011;1798;48.486;9.232;2024-01-11T12:54:03;126.73;;;52.17;;
3567;SDS011;1798;48.486;9.232;2024-01-11T12:56:30;143.90;;;51.73;;
3567;SDS011;1798;48.486;9.232;2024-01-11T12:59:06;131.73;;;52.23;;
3567;SDS011;1798;48.486;9.232;2024-01-11T13:01:35;138.10;;;49.00;;
3567;SDS011;1798;48.486;9.232;2024-01-11T13:04:01;147.80;;;53.33;;
3567;SDS011;1798;48.486;9.232;2024-01-11T13:06:28;126.60;;;49.20;;
3567;SDS011;1798;48.486;9.232;2024-01-11T13:08:56;101.83;;;40.33;;
3567;SDS011;1798;48.486;9.232;2024-01-11T13:11:23;124.03;;;47.73;;
3567;SDS011;1798;48.486;9.232;2024-01-11T13:13:50;109.70;;;42.37;;
3567;SDS011;1798;48.486;9.232;2024-01-11T13:16:17;104.83;;;44.57;;
3567;SDS011;1798;48.486;9.232;2024-01-11T13:18:45;106.43;;;47.87;;
3567;SDS011;1798;48.486;9.232;2024-01-11T13:21:12;131.57;;;48.60;;
3567;SDS011;1798;48.486;9.232;2024-01-11T13:23:39;106.13;;;46.77;;
3567;SDS011;1798;48.486;9.232;2024-01-11T13:26:06;128.13;;;49.77;;
3567;SDS011;1798;48.486;9.232;2024-01-11T13:28:33;124.50;;;49.07;;
3567;SDS011;1798;48.486;9.232;2024-01-11T13:31:00;185.23;;;54.53;;
3567;SDS011;1798;48.486;9.232;2024-01-11T13:33:27;134.87;;;48.97;;
3567;SDS011;1798;48.486;9.232;2024-01-11T13:35:55;135.57;;;52.77;;
3567;SDS011;1798;48.486;9.232;2024-01-11T13:38:22;143.53;;;56.33;;
3567;SDS011;1798;48.486;9.232;2024-01-11T13:40:49;142.00;;;56.10;;
3567;SDS011;1798;48.486;9.232;2024-01-11T13:43:16;154.73;;;54.83;;
3567;SDS011;1798;48.486;9.232;2024-01-11T13:45:43;121.70;;;48.00;;
3567;SDS011;1798;48.486;9.232;2024-01-11T13:48:10;110.37;;;46.50;;
3567;SDS011;1798;48.486;9.232;2024-01-11T13:50:37;156.37;;;55.73;;
3567;SDS011;1798;48.486;9.232;2024-01-11T13:53:05;167.50;;;59.00;;
3567;SDS011;1798;48.486;9.232;2024-01-11T13:55:32;100.57;;;46.00;;
3567;SDS011;1798;48.486;9.232;2024-01-11T13:58:02;135.10;;;52.00;;
3567;SDS011;1798;48.486;9.232;2024-01-11T14:00:32;96.90;;;42.13;;
3567;SDS011;1798;48.486;9.232;2024-01-11T14:02:58;155.17;;;55.00;;
3567;SDS011;1798;48.486;9.232;2024-01-11T14:05:25;139.53;;;50.37;;
3567;SDS011;1798;48.486;9.232;2024-01-11T14:07:52;174.97;;;53.03;;
3567;SDS011;1798;48.486;9.232;2024-01-11T14:10:24;105.30;;;46.57;;
3567;SDS011;1798;48.486;9.232;2024-01-11T14:12:51;141.63;;;52.37;;
3567;SDS011;1798;48.486;9.232;2024-01-11T14:15:19;103.17;;;46.10;;
3567;SDS011;1798;48.486;9.232;2024-01-11T14:17:45;135.93;;;54.70;;
3567;SDS011;1798;48.486;9.232;2024-01-11T14:20:13;138.70;;;54.60;;
3567;SDS011;1798;48.486;9.232;2024-01-11T14:22:42;112.37;;;51.60;;
3567;SDS011;1798;48.486;9.232;2024-01-11T14:25:12;119.00;;;51.70;;
3567;SDS011;1798;48.486;9.232;2024-01-11T14:27:40;155.60;;;51.93;;
3567;SDS011;1798;48.486;9.232;2024-01-11T14:30:07;130.83;;;49.47;;
3567;SDS011;1798;48.486;9.232;2024-01-11T14:32:35;145.63;;;52.67;;
3567;SDS011;1798;48.486;9.232;2024-01-11T14:35:04;122.03;;;52.37;;
3567;SDS011;1798;48.486;9.232;2024-01-11T14:37:34;124.17;;;51.30;;
3567;SDS011;1798;48.486;9.232;2024-01-11T14:40:05;134.67;;;55.80;;
3567;SDS011;1798;48.486;9.232;2024-01-11T14:42:32;121.40;;;50.73;;
3567;SDS011;1798;48.486;9.232;2024-01-11T14:45:00;133.23;;;50.20;;